sensor_id;sensor_type;location;lat;lon;timestamp;P1;durP1;ratioP1;P2;durP2;ratioP2
20375;SDS011;10347;51.828;6.466;2023-10-19T00:00:30;6.18;;;5.57;;
20375;SDS011;10347;51.828;6.466;2023-10-19T00:02:58;6.80;;;5.80;;
20375;SDS011;10347;51.828;6.466;2023-10-19T00:05:27;9.93;;;5.82;;
20375;SDS011;10347;51.828;6.466;2023-10-19T00:07:54;6.25;;;5.47;;
20375;SDS011;10347;51.828;6.466;2023-10-19T00:10:22;6.50;;;5.85;;
20375;SDS011;10347;51.828;6.466;2023-10-19T00:12:50;5.72;;;5.00;;
20375;SDS011;10347;51.828;6.466;2023-10-19T00:15:25;6.50;;;5.57;;
20375;SDS011;10347;51.828;6.466;2023-10-19T00:17:55;5.75;;;5.20;;
20375;SDS011;10347;51.828;6.466;2023-10-19T00:20:21;7.32;;;5.53;;
20375;SDS011;10347;51.828;6.466;2023-10-19T00:22:52;6.22;;;5.60;;
20375;SDS011;10347;51.828;6.466;2023-10-19T00:25:18;7.35;;;6.55;;
20375;SDS011;10347;51.828;6.466;2023-10-19T00:27:48;6.22;;;5.65;;
20375;SDS011;10347;51.828;6.466;2023-10-19T00:30:13;7.88;;;6.03;;
20375;SDS011;10347;51.828;6.466;2023-10-19T00:32:43;7.15;;;6.03;;
20375;SDS011;10347;51.828;6.466;2023-10-19T00:35:10;7.40;;;6.50;;
20375;SDS011;10347;51.828;6.466;2023-10-19T00:37:52;8.60;;;6.32;;
20375;SDS011;10347;51.828;6.466;2023-10-19T00:40:21;7.47;;;6.22;;
20375;SDS011;10347;51.828;6.466;2023-10-19T00:43:02;8.88;;;6.55;;
20375;SDS011;10347;51.828;6.466;2023-10-19T00:45:33;8.43;;;6.50;;
20375;SDS011;10347;51.828;6.466;2023-10-19T00:48:05;9.93;;;7.80;;
20375;SDS011;10347;51.828;6.466;2023-10-19T00:50:33;8.60;;;7.15;;
20375;SDS011;10347;51.828;6.466;2023-10-19T00:53:00;9.52;;;6.65;;
20375;SDS011;10347;51.828;6.466;2023-10-19T00:55:27;7.45;;;6.70;;
20375;SDS011;10347;51.828;6.466;2023-10-19T00:57:53;7.10;;;6.38;;
20375;SDS011;10347;51.828;6.466;2023-10-19T01:00:20;7.90;;;6.85;;
20375;SDS011;10347;51.828;6.466;2023-10-19T01:02:59;7.97;;;6.65;;
20375;SDS011;10347;51.828;6.466;2023-10-19T01:05:28;9.38;;;7.20;;
20375;SDS011;10347;51.828;6.466;2023-10-19T01:08:00;8.18;;;6.30;;
20375;SDS011;10347;51.828;6.466;2023-10-19T01:10:28;9.05;;;7.07;;
20375;SDS011;10347;51.828;6.466;2023-10-19T01:12:54;6.85;;;6.05;;
20375;SDS011;10347;51.828;6.466;2023-10-19T01:15:21;9.05;;;7.68;;
20375;SDS011;10347;51.828;6.466;2023-10-19T01:17:53;9.68;;;7.13;;
20375;SDS011;10347;51.828;6.466;2023-10-19T01:22:56;9.30;;;7.88;;
20375;SDS011;10347;51.828;6.466;2023-10-19T01:25:47;8.55;;;7.50;;
20375;SDS011;10347;51.828;6.466;2023-10-19T01:28:20;8.02;;;6.97;;
20375;SDS011;10347;51.828;6.466;2023-10-19T01:30:50;7.55;;;6.60;;
20375;SDS011;10347;51.828;6.466;2023-10-19T01:33:16;7.38;;;6.63;;
20375;SDS011;10347;51.828;6.466;2023-10-19T01:35:43;8.75;;;7.40;;
20375;SDS011;10347;51.828;6.466;2023-10-19T01:38:28;9.02;;;6.75;;
20375;SDS011;10347;51.828;6.466;2023-10-19T01:40:58;9.85;;;7.13;;
20375;SDS011;10347;51.828;6.466;2023-10-19T01:43:27;7.20;;;6.40;;
20375;SDS011;10347;51.828;6.466;2023-10-19T01:45:56;9.35;;;6.88;;
20375;SDS011;10347;51.828;6.466;2023-10-19T01:48:23;6.95;;;6.28;;
20375;SDS011;10347;51.828;6.466;2023-10-19T01:51:04;8.60;;;6.03;;
20375;SDS011;10347;51.828;6.466;2023-10-19T01:53:31;7.57;;;6.03;;
20375;SDS011;10347;51.828;6.466;2023-10-19T01:55:57;6.50;;;5.75;;
20375;SDS011;10347;51.828;6.466;2023-10-19T01:58:24;6.47;;;5.88;;
20375;SDS011;10347;51.828;6.466;2023-10-19T02:00:52;7.68;;;5.97;;
20375;SDS011;10347;51.828;6.466;2023-10-19T02:03:31;7.63;;;6.70;;
20375;SDS011;10347;51.828;6.466;2023-10-19T02:06:06;8.25;;;5.47;;
20375;SDS011;10347;51.828;6.466;2023-10-19T02:08:56;6.47;;;5.57;;
20375;SDS011;10347;51.828;6.466;2023-10-19T02:11:33;7.20;;;6.50;;
20375;SDS011;10347;51.828;6.466;2023-10-19T02:14:02;6.80;;;5.57;;
20375;SDS011;10347;51.828;6.466;2023-10-19T02:16:39;8.07;;;6.22;;
20375;SDS011;10347;51.828;6.466;2023-10-19T02:25:40;7.55;;;6.25;;
20375;SDS011;10347;51.828;6.466;2023-10-19T02:28:07;8.82;;;6.35;;
20375;SDS011;10347;51.828;6.466;2023-10-19T02:30:34;8.65;;;6.05;;
20375;SDS011;10347;51.828;6.466;2023-10-19T02:33:00;6.28;;;5.13;;
20375;SDS011;10347;51.828;6.466;2023-10-19T02:35:26;7.25;;;6.32;;
20375;SDS011;10347;51.828;6.466;2023-10-19T02:37:53;6.50;;;5.90;;
20375;SDS011;10347;51.828;6.466;2023-10-19T02:40:19;6.25;;;5.65;;
20375;SDS011;10347;51.828;6.466;2023-10-19T02:42:48;6.13;;;5.32;;
20375;SDS011;10347;51.828;6.466;2023-10-19T02:45:15;6.15;;;5.55;;
20375;SDS011;10347;51.828;6.466;2023-10-19T02:47:42;7.35;;;5.70;;
20375;SDS011;10347;51.828;6.466;2023-10-19T02:50:09;5.55;;;5.00;;
20375;SDS011;10347;51.828;6.466;2023-10-19T02:52:48;6.03;;;5.32;;
20375;SDS011;10347;51.828;6.466;2023-10-19T02:55:13;5.78;;;5.18;;
20375;SDS011;10347;51.828;6.466;2023-10-19T02:57:41;5.95;;;5.35;;
20375;SDS011;10347;51.828;6.466;2023-10-19T03:00:11;5.63;;;5.10;;
20375;SDS011;10347;51.828;6.466;2023-10-19T03:02:39;6.55;;;5.20;;
20375;SDS011;10347;51.828;6.466;2023-10-19T03:05:05;6.45;;;5.60;;
20375;SDS011;10347;51.828;6.466;2023-10-19T03:07:38;5.68;;;5.18;;
20375;SDS011;10347;51.828;6.466;2023-10-19T03:10:04;7.05;;;5.68;;
20375;SDS011;10347;51.828;6.466;2023-10-19T03:12:31;5.82;;;5.22;;
20375;SDS011;10347;51.828;6.466;2023-10-19T03:14:57;5.18;;;4.78;;
20375;SDS011;10347;51.828;6.466;2023-10-19T03:17:25;6.45;;;5.35;;
20375;SDS011;10347;51.828;6.466;2023-10-19T03:19:51;5.57;;;5.07;;
20375;SDS011;10347;51.828;6.466;2023-10-19T03:22:17;6.32;;;5.20;;
20375;SDS011;10347;51.828;6.466;2023-10-19T03:24:44;6.18;;;5.10;;
20375;SDS011;10347;51.828;6.466;2023-10-19T03:27:13;6.18;;;5.57;;
20375;SDS011;10347;51.828;6.466;2023-10-19T03:29:49;9.48;;;5.65;;
20375;SDS011;10347;51.828;6.466;2023-10-19T03:32:39;6.32;;;5.18;;
20375;SDS011;10347;51.828;6.466;2023-10-19T03:35:05;6.50;;;5.70;;
20375;SDS011;10347;51.828;6.466;2023-10-19T03:37:31;7.40;;;5.10;;
20375;SDS011;10347;51.828;6.466;2023-10-19T03:39:57;5.22;;;4.72;;
20375;SDS011;10347;51.828;6.466;2023-10-19T03:42:23;5.20;;;4.70;;
20375;SDS011;10347;51.828;6.466;2023-10-19T03:44:51;5.55;;;4.72;;
20375;SDS011;10347;51.828;6.466;2023-10-19T03:47:20;5.35;;;4.85;;
20375;SDS011;10347;51.828;6.466;2023-10-19T03:49:50;5.97;;;5.07;;
20375;SDS011;10347;51.828;6.466;2023-10-19T03:52:15;4.50;;;4.10;;
20375;SDS011;10347;51.828;6.466;2023-10-19T03:54:41;4.75;;;4.28;;
20375;SDS011;10347;51.828;6.466;2023-10-19T03:57:07;5.65;;;5.13;;
20375;SDS011;10347;51.828;6.466;2023-10-19T03:59:40;6.32;;;4.80;;
20375;SDS011;10347;51.828;6.466;2023-10-19T04:02:09;5.65;;;4.32;;
20375;SDS011;10347;51.828;6.466;2023-10-19T04:04:35;6.05;;;4.90;;
20375;SDS011;10347;51.828;6.466;2023-10-19T04:07:01;5.88;;;4.82;;
20375;SDS011;10347;51.828;6.466;2023-10-19T04:09:35;5.90;;;4.70;;
20375;SDS011;10347;51.828;6.466;2023-10-19T04:12:14;5.53;;;4.65;;
20375;SDS011;10347;51.828;6.466;2023-10-19T04:14:42;4.65;;;4.25;;
20375;SDS011;10347;51.828;6.466;2023-10-19T04:17:07;5.07;;;4.63;;
20375;SDS011;10347;51.828;6.466;2023-10-19T04:19:37;4.55;;;4.13;;
20375;SDS011;10347;51.828;6.466;2023-10-19T04:22:02;4.20;;;3.90;;
20375;SDS011;10347;51.828;6.466;2023-10-19T04:24:29;4.13;;;3.50;;
20375;SDS011;10347;51.828;6.466;2023-10-19T04:26:58;4.75;;;4.35;;
20375;SDS011;10347;51.828;6.466;2023-10-19T04:29:24;3.92;;;3.60;;
20375;SDS011;10347;51.828;6.466;2023-10-19T04:31:52;3.97;;;3.67;;
20375;SDS011;10347;51.828;6.466;2023-10-19T04:34:22;5.40;;;4.13;;
20375;SDS011;10347;51.828;6.466;2023-10-19T04:36:49;4.68;;;4.03;;
20375;SDS011;10347;51.828;6.466;2023-10-19T04:39:16;4.85;;;3.92;;
20375;SDS011;10347;51.828;6.466;2023-10-19T04:41:44;4.13;;;3.75;;
20375;SDS011;10347;51.828;6.466;2023-10-19T04:44:13;4.85;;;3.80;;
20375;SDS011;10347;51.828;6.466;2023-10-19T04:46:40;4.97;;;4.13;;
20375;SDS011;10347;51.828;6.466;2023-10-19T04:49:06;5.20;;;4.07;;
20375;SDS011;10347;51.828;6.466;2023-10-19T04:51:32;5.07;;;3.78;;
20375;SDS011;10347;51.828;6.466;2023-10-19T04:53:59;4.88;;;3.40;;
20375;SDS011;10347;51.828;6.466;2023-10-19T04:56:25;6.60;;;3.40;;
20375;SDS011;10347;51.828;6.466;2023-10-19T04:58:50;2.95;;;2.72;;
20375;SDS011;10347;51.828;6.466;2023-10-19T05:01:16;3.13;;;2.92;;
20375;SDS011;10347;51.828;6.466;2023-10-19T05:03:41;3.42;;;3.13;;
20375;SDS011;10347;51.828;6.466;2023-10-19T05:06:07;4.03;;;3.28;;
20375;SDS011;10347;51.828;6.466;2023-10-19T05:08:34;3.42;;;3.13;;
20375;SDS011;10347;51.828;6.466;2023-10-19T05:11:01;3.67;;;3.38;;
20375;SDS011;10347;51.828;6.466;2023-10-19T05:13:27;4.47;;;3.70;;
20375;SDS011;10347;51.828;6.466;2023-10-19T05:15:55;3.58;;;3.20;;
20375;SDS011;10347;51.828;6.466;2023-10-19T05:18:21;4.85;;;3.33;;
20375;SDS011;10347;51.828;6.466;2023-10-19T05:20:47;3.45;;;3.15;;
20375;SDS011;10347;51.828;6.466;2023-10-19T05:23:14;3.63;;;3.13;;
20375;SDS011;10347;51.828;6.466;2023-10-19T05:25:40;4.53;;;3.42;;
20375;SDS011;10347;51.828;6.466;2023-10-19T05:28:06;3.55;;;3.22;;
20375;SDS011;10347;51.828;6.466;2023-10-19T05:30:32;3.83;;;2.70;;
20375;SDS011;10347;51.828;6.466;2023-10-19T05:32:59;3.38;;;2.90;;
20375;SDS011;10347;51.828;6.466;2023-10-19T05:35:26;3.03;;;2.83;;
20375;SDS011;10347;51.828;6.466;2023-10-19T05:37:53;4.32;;;3.13;;
20375;SDS011;10347;51.828;6.466;2023-10-19T05:40:21;4.22;;;2.97;;
20375;SDS011;10347;51.828;6.466;2023-10-19T05:42:57;5.05;;;3.08;;
20375;SDS011;10347;51.828;6.466;2023-10-19T05:45:23;3.97;;;3.00;;
20375;SDS011;10347;51.828;6.466;2023-10-19T05:47:49;3.20;;;2.90;;
20375;SDS011;10347;51.828;6.466;2023-10-19T05:50:15;3.95;;;2.92;;
20375;SDS011;10347;51.828;6.466;2023-10-19T05:52:41;3.03;;;2.78;;
20375;SDS011;10347;51.828;6.466;2023-10-19T05:55:08;2.78;;;2.58;;
20375;SDS011;10347;51.828;6.466;2023-10-19T05:57:35;2.55;;;2.45;;
20375;SDS011;10347;51.828;6.466;2023-10-19T06:00:05;2.95;;;2.75;;
20375;SDS011;10347;51.828;6.466;2023-10-19T06:02:38;2.90;;;2.70;;
20375;SDS011;10347;51.828;6.466;2023-10-19T06:05:09;3.13;;;2.53;;
20375;SDS011;10347;51.828;6.466;2023-10-19T06:07:35;3.05;;;2.70;;
20375;SDS011;10347;51.828;6.466;2023-10-19T06:10:02;3.35;;;2.83;;
20375;SDS011;10347;51.828;6.466;2023-10-19T06:12:31;3.35;;;2.40;;
20375;SDS011;10347;51.828;6.466;2023-10-19T06:14:57;2.90;;;2.60;;
20375;SDS011;10347;51.828;6.466;2023-10-19T06:17:23;3.65;;;2.70;;
20375;SDS011;10347;51.828;6.466;2023-10-19T06:19:49;5.70;;;3.13;;
20375;SDS011;10347;51.828;6.466;2023-10-19T06:22:15;2.95;;;2.65;;
20375;SDS011;10347;51.828;6.466;2023-10-19T06:24:41;6.68;;;2.78;;
20375;SDS011;10347;51.828;6.466;2023-10-19T06:27:09;3.28;;;3.05;;
20375;SDS011;10347;51.828;6.466;2023-10-19T06:29:35;4.38;;;2.92;;
20375;SDS011;10347;51.828;6.466;2023-10-19T06:32:01;3.15;;;2.63;;
20375;SDS011;10347;51.828;6.466;2023-10-19T06:34:27;3.30;;;2.50;;
20375;SDS011;10347;51.828;6.466;2023-10-19T06:36:53;6.22;;;2.80;;
20375;SDS011;10347;51.828;6.466;2023-10-19T06:39:19;4.07;;;2.78;;
20375;SDS011;10347;51.828;6.466;2023-10-19T06:41:46;3.00;;;2.45;;
20375;SDS011;10347;51.828;6.466;2023-10-19T06:44:12;2.65;;;2.45;;
20375;SDS011;10347;51.828;6.466;2023-10-19T06:46:38;2.65;;;2.42;;
20375;SDS011;10347;51.828;6.466;2023-10-19T06:49:05;2.88;;;2.53;;
20375;SDS011;10347;51.828;6.466;2023-10-19T06:51:30;3.17;;;2.70;;
20375;SDS011;10347;51.828;6.466;2023-10-19T06:53:58;2.72;;;2.53;;
20375;SDS011;10347;51.828;6.466;2023-10-19T06:56:23;2.95;;;2.70;;
20375;SDS011;10347;51.828;6.466;2023-10-19T06:58:49;4.40;;;2.80;;
20375;SDS011;10347;51.828;6.466;2023-10-19T07:01:15;3.05;;;2.83;;
20375;SDS011;10347;51.828;6.466;2023-10-19T07:03:41;3.65;;;2.83;;
20375;SDS011;10347;51.828;6.466;2023-10-19T07:06:07;3.25;;;2.63;;
20375;SDS011;10347;51.828;6.466;2023-10-19T07:08:38;3.30;;;2.55;;
20375;SDS011;10347;51.828;6.466;2023-10-19T07:11:06;2.95;;;2.70;;
20375;SDS011;10347;51.828;6.466;2023-10-19T07:13:32;3.95;;;2.55;;
20375;SDS011;10347;51.828;6.466;2023-10-19T07:15:58;5.30;;;2.78;;
20375;SDS011;10347;51.828;6.466;2023-10-19T07:18:24;3.05;;;2.67;;
20375;SDS011;10347;51.828;6.466;2023-10-19T07:20:50;3.45;;;2.70;;
20375;SDS011;10347;51.828;6.466;2023-10-19T07:23:18;4.10;;;2.80;;
20375;SDS011;10347;51.828;6.466;2023-10-19T07:25:46;4.97;;;3.00;;
20375;SDS011;10347;51.828;6.466;2023-10-19T07:28:13;4.40;;;2.53;;
20375;SDS011;10347;51.828;6.466;2023-10-19T07:30:41;2.50;;;2.30;;
20375;SDS011;10347;51.828;6.466;2023-10-19T07:33:08;5.72;;;2.88;;
20375;SDS011;10347;51.828;6.466;2023-10-19T07:35:35;3.63;;;2.85;;
20375;SDS011;10347;51.828;6.466;2023-10-19T07:38:03;3.63;;;2.83;;
20375;SDS011;10347;51.828;6.466;2023-10-19T07:40:32;2.45;;;2.13;;
20375;SDS011;10347;51.828;6.466;2023-10-19T07:42:58;5.18;;;2.35;;
20375;SDS011;10347;51.828;6.466;2023-10-19T07:45:23;7.03;;;2.63;;
20375;SDS011;10347;51.828;6.466;2023-10-19T07:47:50;3.53;;;2.40;;
20375;SDS011;10347;51.828;6.466;2023-10-19T07:50:16;6.15;;;2.33;;
20375;SDS011;10347;51.828;6.466;2023-10-19T07:52:45;4.85;;;2.78;;
20375;SDS011;10347;51.828;6.466;2023-10-19T07:55:13;3.50;;;2.35;;
20375;SDS011;10347;51.828;6.466;2023-10-19T07:57:40;5.35;;;2.58;;
20375;SDS011;10347;51.828;6.466;2023-10-19T08:00:09;5.18;;;2.90;;
20375;SDS011;10347;51.828;6.466;2023-10-19T08:02:39;2.83;;;2.28;;
20375;SDS011;10347;51.828;6.466;2023-10-19T08:05:07;2.42;;;1.90;;
20375;SDS011;10347;51.828;6.466;2023-10-19T08:07:33;7.70;;;2.45;;
20375;SDS011;10347;51.828;6.466;2023-10-19T08:10:02;3.22;;;1.92;;
20375;SDS011;10347;51.828;6.466;2023-10-19T08:12:30;5.40;;;2.55;;
20375;SDS011;10347;51.828;6.466;2023-10-19T08:14:57;3.58;;;2.20;;
20375;SDS011;10347;51.828;6.466;2023-10-19T08:17:24;6.35;;;2.00;;
20375;SDS011;10347;51.828;6.466;2023-10-19T08:19:50;4.28;;;2.45;;
20375;SDS011;10347;51.828;6.466;2023-10-19T08:22:15;4.68;;;2.38;;
20375;SDS011;10347;51.828;6.466;2023-10-19T08:24:41;3.35;;;2.05;;
20375;SDS011;10347;51.828;6.466;2023-10-19T08:27:11;2.90;;;2.15;;
20375;SDS011;10347;51.828;6.466;2023-10-19T08:29:38;2.92;;;2.08;;
20375;SDS011;10347;51.828;6.466;2023-10-19T08:32:04;4.65;;;2.25;;
20375;SDS011;10347;51.828;6.466;2023-10-19T08:34:29;3.05;;;1.75;;
20375;SDS011;10347;51.828;6.466;2023-10-19T08:37:00;6.93;;;2.33;;
20375;SDS011;10347;51.828;6.466;2023-10-19T08:39:27;5.13;;;2.05;;
20375;SDS011;10347;51.828;6.466;2023-10-19T08:41:53;4.45;;;2.00;;
20375;SDS011;10347;51.828;6.466;2023-10-19T08:44:20;5.50;;;2.13;;
20375;SDS011;10347;51.828;6.466;2023-10-19T08:46:46;3.65;;;2.13;;
20375;SDS011;10347;51.828;6.466;2023-10-19T08:49:16;2.20;;;1.75;;
20375;SDS011;10347;51.828;6.466;2023-10-19T08:51:45;2.17;;;1.98;;
20375;SDS011;10347;51.828;6.466;2023-10-19T08:54:11;2.58;;;1.75;;
20375;SDS011;10347;51.828;6.466;2023-10-19T08:56:38;3.80;;;1.80;;
20375;SDS011;10347;51.828;6.466;2023-10-19T08:59:06;3.33;;;1.70;;
20375;SDS011;10347;51.828;6.466;2023-10-19T09:01:32;3.08;;;2.00;;
20375;SDS011;10347;51.828;6.466;2023-10-19T09:04:00;1.70;;;1.60;;
20375;SDS011;10347;51.828;6.466;2023-10-19T09:06:26;1.70;;;1.60;;
20375;SDS011;10347;51.828;6.466;2023-10-19T09:08:55;1.60;;;1.50;;
20375;SDS011;10347;51.828;6.466;2023-10-19T09:11:22;2.45;;;1.88;;
20375;SDS011;10347;51.828;6.466;2023-10-19T09:13:50;2.38;;;1.70;;
20375;SDS011;10347;51.828;6.466;2023-10-19T09:16:17;4.03;;;1.70;;
20375;SDS011;10347;51.828;6.466;2023-10-19T09:18:45;3.92;;;1.98;;
20375;SDS011;10347;51.828;6.466;2023-10-19T09:21:19;4.30;;;2.03;;
20375;SDS011;10347;51.828;6.466;2023-10-19T09:23:54;3.42;;;2.08;;
20375;SDS011;10347;51.828;6.466;2023-10-19T09:26:22;5.55;;;2.40;;
20375;SDS011;10347;51.828;6.466;2023-10-19T09:28:49;4.43;;;2.42;;
20375;SDS011;10347;51.828;6.466;2023-10-19T09:31:16;2.50;;;1.75;;
20375;SDS011;10347;51.828;6.466;2023-10-19T09:33:44;3.63;;;1.80;;
20375;SDS011;10347;51.828;6.466;2023-10-19T09:36:11;7.72;;;2.67;;
20375;SDS011;10347;51.828;6.466;2023-10-19T09:38:38;5.70;;;1.83;;
20375;SDS011;10347;51.828;6.466;2023-10-19T09:41:08;2.25;;;1.70;;
20375;SDS011;10347;51.828;6.466;2023-10-19T09:43:38;2.88;;;1.50;;
20375;SDS011;10347;51.828;6.466;2023-10-19T09:46:07;2.05;;;1.48;;
20375;SDS011;10347;51.828;6.466;2023-10-19T09:48:40;3.60;;;2.03;;
20375;SDS011;10347;51.828;6.466;2023-10-19T09:51:10;3.28;;;1.88;;
20375;SDS011;10347;51.828;6.466;2023-10-19T09:53:37;3.05;;;2.10;;
20375;SDS011;10347;51.828;6.466;2023-10-19T09:56:05;5.70;;;2.25;;
20375;SDS011;10347;51.828;6.466;2023-10-19T09:58:36;4.70;;;2.20;;
20375;SDS011;10347;51.828;6.466;2023-10-19T10:01:08;4.00;;;1.98;;
20375;SDS011;10347;51.828;6.466;2023-10-19T10:03:53;3.50;;;1.75;;
20375;SDS011;10347;51.828;6.466;2023-10-19T10:09:19;2.85;;;1.83;;
20375;SDS011;10347;51.828;6.466;2023-10-19T10:11:48;3.55;;;2.08;;
20375;SDS011;10347;51.828;6.466;2023-10-19T10:14:24;2.38;;;2.13;;
20375;SDS011;10347;51.828;6.466;2023-10-19T10:17:02;5.30;;;2.13;;
20375;SDS011;10347;51.828;6.466;2023-10-19T10:19:30;2.13;;;1.90;;
20375;SDS011;10347;51.828;6.466;2023-10-19T10:22:08;2.63;;;1.90;;
20375;SDS011;10347;51.828;6.466;2023-10-19T10:24:42;3.15;;;2.30;;
20375;SDS011;10347;51.828;6.466;2023-10-19T10:27:08;2.92;;;2.05;;
20375;SDS011;10347;51.828;6.466;2023-10-19T10:29:34;3.92;;;2.22;;
20375;SDS011;10347;51.828;6.466;2023-10-19T10:32:00;4.35;;;1.92;;
20375;SDS011;10347;51.828;6.466;2023-10-19T10:37:11;6.88;;;2.20;;
20375;SDS011;10347;51.828;6.466;2023-10-19T10:39:38;5.22;;;2.40;;
20375;SDS011;10347;51.828;6.466;2023-10-19T10:42:09;3.60;;;1.90;;
20375;SDS011;10347;51.828;6.466;2023-10-19T10:47:08;5.40;;;2.40;;
20375;SDS011;10347;51.828;6.466;2023-10-19T10:49:45;3.35;;;1.75;;
20375;SDS011;10347;51.828;6.466;2023-10-19T10:52:12;5.25;;;2.17;;
20375;SDS011;10347;51.828;6.466;2023-10-19T10:54:39;3.63;;;2.15;;
20375;SDS011;10347;51.828;6.466;2023-10-19T10:57:04;6.65;;;1.90;;
20375;SDS011;10347;51.828;6.466;2023-10-19T10:59:30;5.55;;;2.22;;
20375;SDS011;10347;51.828;6.466;2023-10-19T11:01:56;7.22;;;2.33;;
20375;SDS011;10347;51.828;6.466;2023-10-19T11:04:22;3.40;;;2.03;;
20375;SDS011;10347;51.828;6.466;2023-10-19T11:06:47;2.80;;;1.90;;
20375;SDS011;10347;51.828;6.466;2023-10-19T11:09:17;3.42;;;1.90;;
20375;SDS011;10347;51.828;6.466;2023-10-19T11:11:44;2.25;;;1.67;;
20375;SDS011;10347;51.828;6.466;2023-10-19T11:14:10;3.03;;;1.83;;
20375;SDS011;10347;51.828;6.466;2023-10-19T11:16:36;4.32;;;2.00;;
20375;SDS011;10347;51.828;6.466;2023-10-19T11:19:04;4.97;;;2.03;;
20375;SDS011;10347;51.828;6.466;2023-10-19T11:21:30;5.72;;;2.10;;
20375;SDS011;10347;51.828;6.466;2023-10-19T11:23:55;4.10;;;2.30;;
20375;SDS011;10347;51.828;6.466;2023-10-19T11:26:22;8.57;;;2.70;;
20375;SDS011;10347;51.828;6.466;2023-10-19T11:28:58;8.88;;;2.53;;
20375;SDS011;10347;51.828;6.466;2023-10-19T11:31:29;9.27;;;2.33;;
20375;SDS011;10347;51.828;6.466;2023-10-19T11:34:02;4.68;;;2.50;;
20375;SDS011;10347;51.828;6.466;2023-10-19T11:36:28;7.88;;;2.97;;
20375;SDS011;10347;51.828;6.466;2023-10-19T11:38:54;6.90;;;2.30;;
20375;SDS011;10347;51.828;6.466;2023-10-19T11:41:20;7.82;;;2.53;;
20375;SDS011;10347;51.828;6.466;2023-10-19T11:43:47;9.80;;;2.67;;
20375;SDS011;10347;51.828;6.466;2023-10-19T11:46:13;5.35;;;2.35;;
20375;SDS011;10347;51.828;6.466;2023-10-19T11:48:40;6.63;;;2.63;;
20375;SDS011;10347;51.828;6.466;2023-10-19T11:51:07;10.15;;;2.88;;
20375;SDS011;10347;51.828;6.466;2023-10-19T11:53:36;5.32;;;2.20;;
20375;SDS011;10347;51.828;6.466;2023-10-19T11:58:29;5.72;;;1.80;;
20375;SDS011;10347;51.828;6.466;2023-10-19T12:00:57;4.75;;;2.05;;
20375;SDS011;10347;51.828;6.466;2023-10-19T12:03:30;5.82;;;2.20;;
20375;SDS011;10347;51.828;6.466;2023-10-19T12:05:56;3.63;;;1.75;;
20375;SDS011;10347;51.828;6.466;2023-10-19T12:08:22;5.85;;;2.10;;
20375;SDS011;10347;51.828;6.466;2023-10-19T12:10:48;4.28;;;1.83;;
20375;SDS011;10347;51.828;6.466;2023-10-19T12:13:15;4.70;;;2.10;;
20375;SDS011;10347;51.828;6.466;2023-10-19T12:15:41;8.70;;;2.95;;
20375;SDS011;10347;51.828;6.466;2023-10-19T12:18:07;9.38;;;2.42;;
20375;SDS011;10347;51.828;6.466;2023-10-19T12:20:33;9.60;;;2.22;;
20375;SDS011;10347;51.828;6.466;2023-10-19T12:23:00;4.38;;;1.95;;
20375;SDS011;10347;51.828;6.466;2023-10-19T12:25:26;4.60;;;1.90;;
20375;SDS011;10347;51.828;6.466;2023-10-19T12:27:54;4.22;;;1.77;;
20375;SDS011;10347;51.828;6.466;2023-10-19T12:30:22;6.22;;;1.73;;
20375;SDS011;10347;51.828;6.466;2023-10-19T12:32:51;4.93;;;2.08;;
20375;SDS011;10347;51.828;6.466;2023-10-19T12:35:19;8.27;;;2.08;;
20375;SDS011;10347;51.828;6.466;2023-10-19T12:37:49;7.18;;;2.30;;
20375;SDS011;10347;51.828;6.466;2023-10-19T12:40:18;5.38;;;2.13;;
20375;SDS011;10347;51.828;6.466;2023-10-19T12:42:53;3.15;;;1.83;;
20375;SDS011;10347;51.828;6.466;2023-10-19T12:45:24;4.72;;;2.20;;
20375;SDS011;10347;51.828;6.466;2023-10-19T12:47:50;3.22;;;1.80;;
20375;SDS011;10347;51.828;6.466;2023-10-19T12:50:19;6.40;;;1.90;;
20375;SDS011;10347;51.828;6.466;2023-10-19T12:52:48;5.90;;;2.50;;
20375;SDS011;10347;51.828;6.466;2023-10-19T12:55:15;6.75;;;2.53;;
20375;SDS011;10347;51.828;6.466;2023-10-19T12:57:41;8.10;;;2.63;;
20375;SDS011;10347;51.828;6.466;2023-10-19T13:00:07;7.57;;;2.38;;
20375;SDS011;10347;51.828;6.466;2023-10-19T13:02:54;7.13;;;2.25;;
20375;SDS011;10347;51.828;6.466;2023-10-19T13:05:27;4.95;;;2.35;;
20375;SDS011;10347;51.828;6.466;2023-10-19T13:07:53;3.95;;;2.20;;
20375;SDS011;10347;51.828;6.466;2023-10-19T13:10:23;6.95;;;2.10;;
20375;SDS011;10347;51.828;6.466;2023-10-19T13:12:53;5.72;;;2.00;;
20375;SDS011;10347;51.828;6.466;2023-10-19T13:15:19;5.97;;;1.95;;
20375;SDS011;10347;51.828;6.466;2023-10-19T13:17:47;5.30;;;1.90;;
20375;SDS011;10347;51.828;6.466;2023-10-19T13:20:13;3.72;;;1.60;;
20375;SDS011;10347;51.828;6.466;2023-10-19T13:22:43;4.15;;;1.60;;
20375;SDS011;10347;51.828;6.466;2023-10-19T13:25:09;4.05;;;1.95;;
20375;SDS011;10347;51.828;6.466;2023-10-19T13:27:38;4.22;;;1.95;;
20375;SDS011;10347;51.828;6.466;2023-10-19T13:30:06;4.22;;;1.90;;
20375;SDS011;10347;51.828;6.466;2023-10-19T13:32:35;2.55;;;1.45;;
20375;SDS011;10347;51.828;6.466;2023-10-19T13:35:01;5.95;;;1.88;;
20375;SDS011;10347;51.828;6.466;2023-10-19T13:37:27;5.22;;;1.70;;
20375;SDS011;10347;51.828;6.466;2023-10-19T13:39:53;4.30;;;1.92;;
20375;SDS011;10347;51.828;6.466;2023-10-19T13:42:19;5.75;;;1.90;;
20375;SDS011;10347;51.828;6.466;2023-10-19T13:44:46;4.40;;;2.00;;
20375;SDS011;10347;51.828;6.466;2023-10-19T13:47:12;7.28;;;2.40;;
20375;SDS011;10347;51.828;6.466;2023-10-19T13:49:38;7.30;;;2.20;;
20375;SDS011;10347;51.828;6.466;2023-10-19T13:52:03;4.65;;;2.20;;
20375;SDS011;10347;51.828;6.466;2023-10-19T13:54:33;3.63;;;1.95;;
20375;SDS011;10347;51.828;6.466;2023-10-19T13:57:00;8.57;;;2.53;;
20375;SDS011;10347;51.828;6.466;2023-10-19T13:59:27;8.93;;;2.30;;
20375;SDS011;10347;51.828;6.466;2023-10-19T14:01:53;4.45;;;2.20;;
20375;SDS011;10347;51.828;6.466;2023-10-19T14:04:19;4.53;;;2.13;;
20375;SDS011;10347;51.828;6.466;2023-10-19T14:06:45;6.32;;;2.50;;
20375;SDS011;10347;51.828;6.466;2023-10-19T14:09:14;5.20;;;2.30;;
20375;SDS011;10347;51.828;6.466;2023-10-19T14:11:39;9.95;;;2.80;;
20375;SDS011;10347;51.828;6.466;2023-10-19T14:14:05;4.18;;;2.13;;
20375;SDS011;10347;51.828;6.466;2023-10-19T14:16:31;6.65;;;2.40;;
20375;SDS011;10347;51.828;6.466;2023-10-19T14:18:57;5.90;;;2.42;;
20375;SDS011;10347;51.828;6.466;2023-10-19T14:21:23;8.95;;;3.65;;
20375;SDS011;10347;51.828;6.466;2023-10-19T14:23:51;7.13;;;3.42;;
20375;SDS011;10347;51.828;6.466;2023-10-19T14:26:19;8.30;;;3.13;;
20375;SDS011;10347;51.828;6.466;2023-10-19T14:28:44;3.50;;;2.20;;
20375;SDS011;10347;51.828;6.466;2023-10-19T14:31:10;5.47;;;2.45;;
20375;SDS011;10347;51.828;6.466;2023-10-19T14:33:37;7.35;;;2.50;;
20375;SDS011;10347;51.828;6.466;2023-10-19T14:36:05;5.80;;;2.28;;
20375;SDS011;10347;51.828;6.466;2023-10-19T14:38:32;6.30;;;2.30;;
20375;SDS011;10347;51.828;6.466;2023-10-19T14:40:58;4.97;;;2.40;;
20375;SDS011;10347;51.828;6.466;2023-10-19T14:43:24;5.50;;;2.80;;
20375;SDS011;10347;51.828;6.466;2023-10-19T14:45:54;6.55;;;2.50;;
20375;SDS011;10347;51.828;6.466;2023-10-19T14:48:21;4.43;;;2.10;;
20375;SDS011;10347;51.828;6.466;2023-10-19T14:50:47;6.90;;;2.35;;
20375;SDS011;10347;51.828;6.466;2023-10-19T14:53:15;6.72;;;2.30;;
20375;SDS011;10347;51.828;6.466;2023-10-19T14:55:43;6.28;;;2.58;;
20375;SDS011;10347;51.828;6.466;2023-10-19T14:58:09;6.63;;;1.98;;
20375;SDS011;10347;51.828;6.466;2023-10-19T15:00:35;5.35;;;2.38;;
20375;SDS011;10347;51.828;6.466;2023-10-19T15:03:07;6.50;;;2.08;;
20375;SDS011;10347;51.828;6.466;2023-10-19T15:05:34;7.50;;;2.28;;
20375;SDS011;10347;51.828;6.466;2023-10-19T15:08:03;3.30;;;1.70;;
20375;SDS011;10347;51.828;6.466;2023-10-19T15:10:30;3.45;;;1.77;;
20375;SDS011;10347;51.828;6.466;2023-10-19T15:12:56;4.65;;;1.85;;